Time;durP1;ratioP1;P1;durP2;ratioP2;P2;SDS_P1;SDS_P2;PMS_P1;PMS_P2;Temp;Humidity;BMP_temperature;BMP_pressure;BME280_temperature;BME280_humidity;BME280_pressure;Samples;Min_cycle;Max_cycle;Signal;HPM_P1;HPM_P2
2021/03/04 00:00:56;;;;;;;35.25;18.38;;;4.50;99.90;;;;;;4936748;29;20529;-77
2021/03/04 00:03:28;;;;;;;28.45;16.15;;;4.50;99.90;;;;;;4951486;29;20589;-77
2021/03/04 00:05:59;;;;;;;29.00;17.55;;;4.50;99.90;;;;;;4927592;29;20125;-77
2021/03/04 00:08:30;;;;;;;25.73;15.05;;;4.50;99.90;;;;;;4917014;29;20043;-78
2021/03/04 00:11:01;;;;;;;22.35;13.55;;;4.40;99.90;;;;;;4941778;29;20036;-78
2021/03/04 00:13:32;;;;;;;27.02;14.50;;;4.40;99.90;;;;;;4902572;29;20050;-77
2021/03/04 00:16:04;;;;;;;21.95;13.98;;;4.50;99.90;;;;;;4914403;29;20043;-78
2021/03/04 00:18:36;;;;;;;24.35;13.52;;;4.50;99.90;;;;;;4916241;29;20075;-77
2021/03/04 00:21:08;;;;;;;22.45;13.30;;;4.50;99.90;;;;;;4916791;29;20062;-77
2021/03/04 00:23:39;;;;;;;23.80;13.30;;;4.50;99.90;;;;;;4917094;29;20479;-77
2021/03/04 00:26:10;;;;;;;22.67;13.55;;;4.50;99.90;;;;;;4917824;29;20051;-77
2021/03/04 00:28:36;;;;;;;24.70;13.63;;;4.50;99.90;;;;;;4916621;29;20066;-78
2021/03/04 00:31:08;;;;;;;21.05;12.25;;;4.60;99.90;;;;;;4901999;29;20052;-77
2021/03/04 00:33:39;;;;;;;22.45;12.90;;;4.60;99.90;;;;;;4901801;29;20086;-78
2021/03/04 00:36:10;;;;;;;21.73;13.18;;;4.60;99.90;;;;;;4916903;29;20048;-77
2021/03/04 00:38:41;;;;;;;24.65;13.85;;;4.60;99.90;;;;;;4901601;29;20094;-78
2021/03/04 00:41:13;;;;;;;22.98;12.80;;;4.50;99.90;;;;;;4901908;29;20059;-77
2021/03/04 00:43:44;;;;;;;21.30;12.82;;;4.50;99.90;;;;;;4901732;29;20150;-77
2021/03/04 00:46:15;;;;;;;28.48;13.45;;;4.50;99.90;;;;;;4917698;29;20046;-78
2021/03/04 00:48:47;;;;;;;20.83;12.07;;;4.40;99.90;;;;;;4921933;29;20130;-77
2021/03/04 00:51:18;;;;;;;22.35;12.30;;;4.40;99.90;;;;;;4920440;29;20054;-78
2021/03/04 00:53:49;;;;;;;23.70;12.35;;;4.40;99.90;;;;;;4920780;29;20071;-78
2021/03/04 00:56:21;;;;;;;20.77;12.05;;;4.30;99.90;;;;;;4920319;29;20043;-77
2021/03/04 00:58:52;;;;;;;22.92;11.85;;;4.30;99.90;;;;;;4935089;29;20147;-78
2021/03/04 01:01:23;;;;;;;23.25;13.25;;;4.30;99.90;;;;;;4920417;29;20414;-77
2021/03/04 01:03:55;;;;;;;21.23;11.32;;;4.30;99.90;;;;;;4920569;29;20051;-77
2021/03/04 01:06:26;;;;;;;21.80;12.65;;;4.20;99.90;;;;;;4920305;29;20051;-77
2021/03/04 01:08:57;;;;;;;23.10;12.13;;;4.20;99.90;;;;;;4935081;29;20731;-77
2021/03/04 01:11:29;;;;;;;21.70;12.40;;;4.20;99.90;;;;;;4935850;29;20310;-77
2021/03/04 01:14:00;;;;;;;20.35;12.95;;;4.10;99.90;;;;;;4920145;29;20130;-78
2021/03/04 01:16:31;;;;;;;18.08;10.70;;;4.20;99.90;;;;;;4952705;29;20047;-77
2021/03/04 01:19:02;;;;;;;18.75;10.40;;;4.10;99.90;;;;;;4935916;29;20460;-78
2021/03/04 01:21:34;;;;;;;17.83;10.70;;;4.10;99.90;;;;;;4920528;29;20661;-77
2021/03/04 01:24:06;;;;;;;20.58;10.98;;;4.10;99.90;;;;;;4935102;29;20138;-78
2021/03/04 01:26:32;;;;;;;20.52;11.73;;;4.10;99.90;;;;;;4919229;29;20051;-77
2021/03/04 01:29:04;;;;;;;21.35;12.15;;;4.10;99.90;;;;;;4934967;29;20447;-77
2021/03/04 01:31:35;;;;;;;17.02;11.20;;;4.10;99.90;;;;;;4935063;29;20494;-77
2021/03/04 01:34:06;;;;;;;19.17;11.40;;;4.00;99.90;;;;;;4936023;29;20043;-77
2021/03/04 01:36:37;;;;;;;20.13;10.93;;;4.00;99.90;;;;;;4934894;29;20544;-78
2021/03/04 01:39:09;;;;;;;17.52;10.48;;;4.10;99.90;;;;;;4934633;29;20323;-77
2021/03/04 01:41:40;;;;;;;16.52;10.80;;;4.10;99.90;;;;;;4919691;29;20065;-77
2021/03/04 01:44:11;;;;;;;18.95;11.50;;;4.20;99.90;;;;;;4934434;29;20181;-77
2021/03/04 01:46:43;;;;;;;24.92;11.15;;;4.20;99.90;;;;;;4935055;29;20047;-77
2021/03/04 01:49:14;;;;;;;19.98;10.43;;;4.20;99.90;;;;;;4915376;29;20134;-77
2021/03/04 01:51:46;;;;;;;21.02;12.52;;;4.20;99.90;;;;;;4931929;29;20047;-77
2021/03/04 01:54:18;;;;;;;25.17;16.17;;;4.20;99.90;;;;;;4931757;29;20043;-78
2021/03/04 01:56:49;;;;;;;30.33;16.23;;;4.20;99.90;;;;;;4915853;29;20075;-78
2021/03/04 01:59:22;;;;;;;23.98;13.75;;;4.20;99.90;;;;;;4900314;29;20142;-77
2021/03/04 02:01:59;;;;;;;16.30;10.60;;;4.20;99.90;;;;;;4900648;29;20432;-78
2021/03/04 02:04:31;;;;;;;18.33;11.07;;;4.20;99.90;;;;;;4916445;29;20298;-77
2021/03/04 02:07:14;;;;;;;17.40;10.30;;;4.20;99.90;;;;;;4915545;29;20048;-78
2021/03/04 02:10:00;;;;;;;19.50;11.23;;;4.10;99.90;;;;;;4915731;29;20130;-77
2021/03/04 02:12:41;;;;;;;17.48;10.43;;;4.20;99.90;;;;;;4931547;29;20048;-77
2021/03/04 02:15:17;;;;;;;20.02;12.18;;;4.30;99.90;;;;;;4915790;29;20048;-77
2021/03/04 02:17:52;;;;;;;23.33;13.38;;;4.30;99.90;;;;;;4915370;29;20044;-77
2021/03/04 02:20:51;;;;;;;23.80;13.73;;;4.30;99.90;;;;;;4916353;29;20083;-77
2021/03/04 02:23:44;;;;;;;22.17;13.13;;;4.30;99.90;;;;;;4900289;29;20040;-78
2021/03/04 02:26:48;;;;;;;23.98;14.35;;;4.30;99.90;;;;;;4900389;29;20421;-77
2021/03/04 02:29:23;;;;;;;25.38;15.70;;;4.30;99.90;;;;;;4871599;29;20058;-77
2021/03/04 02:31:53;;;;;;;30.35;15.55;;;4.30;99.90;;;;;;4915277;29;20055;-77
2021/03/04 02:34:26;;;;;;;23.73;13.30;;;4.20;99.90;;;;;;4915668;29;20499;-77
2021/03/04 02:37:00;;;;;;;18.55;10.52;;;4.20;99.90;;;;;;4916328;29;20103;-77
2021/03/04 02:39:33;;;;;;;16.73;10.85;;;4.20;99.90;;;;;;4915276;29;20054;-77
2021/03/04 02:42:05;;;;;;;18.60;11.80;;;4.20;99.90;;;;;;4931516;29;20166;-78
2021/03/04 02:44:37;;;;;;;24.10;12.77;;;4.20;99.90;;;;;;4915504;29;20044;-79
2021/03/04 02:47:10;;;;;;;21.90;11.80;;;4.20;99.90;;;;;;4931098;29;20115;-78
2021/03/04 02:49:42;;;;;;;22.05;13.63;;;4.20;99.90;;;;;;4946671;28;20307;-77
2021/03/04 02:52:15;;;;;;;23.65;12.90;;;4.20;99.90;;;;;;4938096;29;20081;-77
2021/03/04 02:54:47;;;;;;;20.17;12.77;;;4.20;99.90;;;;;;4937912;29;20499;-77
2021/03/04 02:57:21;;;;;;;22.08;13.70;;;4.20;99.90;;;;;;4922671;29;20085;-78
2021/03/04 02:59:53;;;;;;;22.90;14.15;;;4.20;99.90;;;;;;4922540;29;20065;-77
2021/03/04 03:02:26;;;;;;;23.45;14.23;;;4.20;99.90;;;;;;4922823;29;20047;-78
2021/03/04 03:04:59;;;;;;;25.60;15.00;;;4.20;99.90;;;;;;4938869;29;20090;-77
2021/03/04 03:07:31;;;;;;;26.95;14.27;;;4.20;99.90;;;;;;4954927;29;20507;-77
2021/03/04 03:10:03;;;;;;;20.90;12.65;;;4.20;99.90;;;;;;4922398;29;20048;-77
2021/03/04 03:12:38;;;;;;;22.70;13.05;;;4.30;99.90;;;;;;4937689;29;20163;-77
2021/03/04 03:15:11;;;;;;;19.90;10.80;;;4.20;99.90;;;;;;4937525;29;20118;-78
2021/03/04 03:17:44;;;;;;;;;;;4.30;99.90;;;;;;4922970;29;20035;-77
2021/03/04 03:20:18;;;;;;;20.75;10.13;;;4.30;99.90;;;;;;4938641;29;19973;-77
2021/03/04 03:22:51;;;;;;;17.17;11.23;;;4.30;99.90;;;;;;4937681;29;20130;-79
2021/03/04 03:25:22;;;;;;;27.85;12.75;;;4.40;99.90;;;;;;4937525;29;20067;-77
2021/03/04 03:27:56;;;;;;;19.42;10.93;;;4.50;99.90;;;;;;4938270;29;20035;-78
2021/03/04 03:30:28;;;;;;;22.13;12.07;;;4.40;99.90;;;;;;4938405;29;20122;-77
2021/03/04 03:33:03;;;;;;;17.65;10.15;;;4.50;99.90;;;;;;4937293;29;20392;-78
2021/03/04 03:35:37;;;;;;;21.60;10.82;;;4.60;99.90;;;;;;4937492;29;20135;-77
2021/03/04 03:38:09;;;;;;;20.10;10.30;;;4.60;99.90;;;;;;4937041;29;20065;-77
2021/03/04 03:40:46;;;;;;;22.30;11.45;;;4.60;99.90;;;;;;4938036;29;20070;-77
2021/03/04 03:43:19;;;;;;;19.30;11.38;;;4.60;99.90;;;;;;4937743;29;20054;-77
2021/03/04 03:45:51;;;;;;;20.95;11.18;;;4.70;99.90;;;;;;4938162;29;20071;-77
2021/03/04 03:48:27;;;;;;;21.27;10.50;;;4.80;99.90;;;;;;4919078;29;20048;-77
2021/03/04 03:50:59;;;;;;;21.33;11.07;;;4.90;99.90;;;;;;4902935;29;20138;-78
2021/03/04 03:53:31;;;;;;;17.27;10.55;;;5.00;99.90;;;;;;4902854;29;20051;-78
2021/03/04 03:56:03;;;;;;;22.98;12.07;;;5.00;99.90;;;;;;4902581;29;20054;-77
2021/03/04 03:58:37;;;;;;;17.83;10.60;;;5.00;99.90;;;;;;4902715;29;20048;-77
2021/03/04 04:01:09;;;;;;;20.13;12.20;;;5.00;99.90;;;;;;4916958;29;20044;-77
2021/03/04 04:03:35;;;;;;;24.17;14.38;;;5.00;99.90;;;;;;4917971;29;20055;-78
2021/03/04 04:06:07;;;;;;;21.75;12.73;;;4.90;99.90;;;;;;4918554;29;20467;-78
2021/03/04 04:08:38;;;;;;;25.17;14.48;;;4.90;99.90;;;;;;4902082;29;20048;-78
2021/03/04 04:11:10;;;;;;;20.00;12.05;;;4.80;99.90;;;;;;4902509;29;20174;-77
2021/03/04 04:13:41;;;;;;;22.02;12.75;;;4.70;99.90;;;;;;4917447;29;20058;-77
2021/03/04 04:16:15;;;;;;;19.63;11.75;;;4.70;99.90;;;;;;4902392;29;20063;-78
2021/03/04 04:18:42;;;;;;;20.58;11.43;;;4.70;99.90;;;;;;4901388;29;20170;-77
2021/03/04 04:21:14;;;;;;;26.00;11.60;;;4.70;99.90;;;;;;4917427;29;20433;-78
2021/03/04 04:23:45;;;;;;;18.90;10.63;;;4.70;99.90;;;;;;4918258;29;20051;-78
2021/03/04 04:26:17;;;;;;;22.42;11.55;;;4.90;99.90;;;;;;4917989;29;20075;-78
2021/03/04 04:28:48;;;;;;;18.08;10.07;;;5.10;99.90;;;;;;4901818;29;20407;-78
2021/03/04 04:31:21;;;;;;;18.20;10.30;;;5.30;99.90;;;;;;4902018;29;20503;-77
2021/03/04 04:33:52;;;;;;;23.60;15.07;;;5.30;99.90;;;;;;4918165;29;20040;-77
2021/03/04 04:36:24;;;;;;;30.77;16.63;;;5.30;99.90;;;;;;4917946;29;20070;-77
2021/03/04 04:38:56;;;;;;;30.95;15.93;;;5.20;99.90;;;;;;4917535;29;20051;-77
2021/03/04 04:41:27;;;;;;;29.23;17.42;;;5.10;99.90;;;;;;4901939;29;20445;-78
2021/03/04 04:43:58;;;;;;;32.85;17.95;;;5.10;99.90;;;;;;4916613;29;20047;-77
2021/03/04 04:46:29;;;;;;;27.42;16.13;;;5.00;99.90;;;;;;4902053;29;20054;-78
2021/03/04 04:49:01;;;;;;;36.83;18.05;;;4.90;99.90;;;;;;4909003;29;20451;-77
2021/03/04 04:51:34;;;;;;;31.00;17.45;;;4.90;99.90;;;;;;4920565;29;20074;-78
2021/03/04 04:54:05;;;;;;;27.40;17.25;;;4.80;99.90;;;;;;4935628;29;20050;-77
2021/03/04 04:56:37;;;;;;;31.00;16.40;;;4.70;99.90;;;;;;4920642;29;20479;-77
2021/03/04 04:59:08;;;;;;;34.38;16.92;;;4.70;99.90;;;;;;4920485;29;20503;-78
2021/03/04 05:01:40;;;;;;;18.02;10.88;;;4.70;99.90;;;;;;4920605;29;20077;-79
2021/03/04 05:04:06;;;;;;;16.77;9.55;;;4.70;99.90;;;;;;4919729;29;20047;-78
2021/03/04 05:06:38;;;;;;;16.48;9.77;;;4.80;99.90;;;;;;4936031;29;20458;-78
2021/03/04 05:09:04;;;;;;;19.05;10.27;;;4.80;99.90;;;;;;4935386;29;20039;-78
2021/03/04 05:11:35;;;;;;;17.58;10.18;;;4.80;99.90;;;;;;4935439;28;20043;-78
2021/03/04 05:14:06;;;;;;;19.17;9.68;;;4.80;99.90;;;;;;4936077;29;20425;-78
2021/03/04 05:16:38;;;;;;;18.00;8.88;;;4.90;99.90;;;;;;4937536;29;20138;-79
2021/03/04 05:19:10;;;;;;;14.45;9.18;;;4.90;99.90;;;;;;4919680;29;20055;-78
2021/03/04 05:21:41;;;;;;;16.98;9.13;;;5.00;99.90;;;;;;4952364;29;20070;-78
2021/03/04 05:24:12;;;;;;;14.43;8.85;;;5.00;99.90;;;;;;4920599;29;20055;-78
2021/03/04 05:26:43;;;;;;;14.32;8.18;;;5.00;99.90;;;;;;4920212;29;20071;-78
2021/03/04 05:29:15;;;;;;;15.70;8.77;;;5.00;99.90;;;;;;4919770;29;20199;-78
2021/03/04 05:31:46;;;;;;;16.20;8.85;;;4.90;99.90;;;;;;4920417;29;20047;-77
2021/03/04 05:34:17;;;;;;;15.23;8.68;;;4.90;99.90;;;;;;4934973;29;20048;-77
2021/03/04 05:36:49;;;;;;;15.45;9.63;;;4.90;99.90;;;;;;4919901;29;20043;-77
2021/03/04 05:39:20;;;;;;;18.80;8.70;;;4.90;99.90;;;;;;4934821;29;20047;-78
2021/03/04 05:41:53;;;;;;;16.98;8.38;;;4.90;99.90;;;;;;4919829;28;20203;-77
2021/03/04 05:44:26;;;;;;;15.07;9.43;;;4.90;99.90;;;;;;4926327;29;20047;-77
2021/03/04 05:46:57;;;;;;;15.20;8.87;;;4.90;99.90;;;;;;4919607;29;20305;-78
2021/03/04 05:49:28;;;;;;;14.10;8.63;;;4.90;99.90;;;;;;4915303;29;20055;-77
2021/03/04 05:52:03;;;;;;;17.83;8.57;;;5.00;99.90;;;;;;4930941;29;20044;-77
2021/03/04 05:54:37;;;;;;;14.18;8.73;;;5.10;99.90;;;;;;4931701;29;20495;-77
2021/03/04 05:57:08;;;;;;;16.05;8.50;;;5.00;99.90;;;;;;4900888;29;20411;-78
2021/03/04 05:59:35;;;;;;;15.60;8.88;;;5.00;99.90;;;;;;4931355;29;20594;-77
2021/03/04 06:02:07;;;;;;;16.88;9.93;;;5.10;99.90;;;;;;4931818;29;20139;-77
2021/03/04 06:04:39;;;;;;;16.67;8.93;;;5.10;99.90;;;;;;4915760;29;20392;-77
2021/03/04 06:07:10;;;;;;;16.55;9.43;;;5.10;99.90;;;;;;4916437;29;20082;-77
2021/03/04 06:09:42;;;;;;;15.68;8.88;;;5.10;99.90;;;;;;4932041;29;20043;-77
2021/03/04 06:12:13;;;;;;;15.40;9.10;;;5.20;99.90;;;;;;4915257;29;20050;-77
2021/03/04 06:14:45;;;;;;;16.02;8.88;;;5.20;99.90;;;;;;4900600;29;20040;-77
2021/03/04 06:17:18;;;;;;;17.77;9.20;;;5.30;99.90;;;;;;4931752;29;20146;-77
2021/03/04 06:19:59;;;;;;;20.08;9.93;;;5.30;99.90;;;;;;4899558;29;20056;-77
2021/03/04 06:22:38;;;;;;;16.83;8.77;;;5.40;99.90;;;;;;4911926;29;20138;-77
2021/03/04 06:25:10;;;;;;;18.27;9.35;;;5.50;99.90;;;;;;4922784;29;20521;-77
2021/03/04 06:27:46;;;;;;;17.80;8.43;;;5.50;99.90;;;;;;4938590;29;20490;-77
2021/03/04 06:30:17;;;;;;;14.60;7.93;;;5.50;99.90;;;;;;4938773;29;20058;-78
2021/03/04 06:32:58;;;;;;;16.77;8.88;;;5.50;99.90;;;;;;4938723;29;20078;-77
2021/03/04 06:35:41;;;;;;;17.50;8.70;;;5.50;99.90;;;;;;4952443;28;20050;-77
2021/03/04 06:38:17;;;;;;;17.65;9.10;;;5.50;99.90;;;;;;4921919;29;20407;-77
2021/03/04 06:40:50;;;;;;;16.90;9.95;;;5.50;99.90;;;;;;4934686;29;20531;-79
2021/03/04 06:43:24;;;;;;;13.43;8.88;;;5.50;99.90;;;;;;4919147;29;20054;-77
2021/03/04 06:46:07;;;;;;;16.42;9.27;;;5.60;99.90;;;;;;4951021;28;20058;-77
2021/03/04 06:48:50;;;;;;;14.43;9.23;;;5.60;99.90;;;;;;4916082;29;20036;-77
2021/03/04 06:51:21;;;;;;;17.15;8.80;;;5.60;99.90;;;;;;4941549;29;20047;-77
2021/03/04 06:53:53;;;;;;;19.45;8.60;;;5.60;99.90;;;;;;4939810;28;20055;-77
2021/03/04 06:56:29;;;;;;;16.75;8.27;;;5.70;99.90;;;;;;4923531;28;20039;-77
2021/03/04 06:59:02;;;;;;;22.45;10.30;;;5.70;99.90;;;;;;4954484;28;20047;-77
2021/03/04 07:01:39;;;;;;;14.77;9.40;;;5.80;99.90;;;;;;4971289;28;20078;-77
2021/03/04 07:04:15;;;;;;;16.60;8.48;;;5.80;99.90;;;;;;4939689;28;20518;-78
2021/03/04 07:06:46;;;;;;;15.48;8.13;;;5.80;99.90;;;;;;4971729;28;20414;-78
2021/03/04 07:09:19;;;;;;;17.20;9.40;;;5.90;99.90;;;;;;4920740;29;20530;-77
2021/03/04 07:11:51;;;;;;;17.52;9.70;;;5.90;99.90;;;;;;4929659;29;20118;-77
2021/03/04 07:14:22;;;;;;;22.95;12.35;;;5.90;99.90;;;;;;4935312;29;20054;-77
2021/03/04 07:16:55;;;;;;;23.63;13.48;;;6.00;99.90;;;;;;4933801;29;20040;-77
2021/03/04 07:19:28;;;;;;;25.50;13.57;;;5.90;99.90;;;;;;4935113;29;20048;-77
2021/03/04 07:21:56;;;;;;;22.83;13.48;;;5.90;99.90;;;;;;4902680;29;20531;-78
2021/03/04 07:24:27;;;;;;;23.88;13.48;;;5.80;99.90;;;;;;4918689;29;20466;-77
2021/03/04 07:26:58;;;;;;;31.17;16.42;;;5.70;99.90;;;;;;4917937;29;20075;-77
2021/03/04 07:29:29;;;;;;;25.20;13.68;;;5.60;99.90;;;;;;4917565;29;20039;-77
2021/03/04 07:32:06;;;;;;;22.23;13.52;;;5.60;99.90;;;;;;4917217;29;20047;-78
2021/03/04 07:34:40;;;;;;;23.70;12.52;;;5.50;99.90;;;;;;4918065;29;20067;-77
2021/03/04 07:37:17;;;;;;;20.67;12.82;;;5.50;99.90;;;;;;4933837;29;20036;-79
2021/03/04 07:39:58;;;;;;;24.52;13.00;;;5.50;99.90;;;;;;4901684;29;20452;-77
2021/03/04 07:42:29;;;;;;;26.45;12.77;;;5.50;99.90;;;;;;4947144;28;20039;-77
2021/03/04 07:45:14;;;;;;;20.75;12.75;;;5.50;99.90;;;;;;4940502;28;20043;-78
2021/03/04 07:47:46;;;;;;;24.15;11.15;;;5.60;99.90;;;;;;4973061;28;20043;-77
2021/03/04 07:50:23;;;;;;;20.33;11.18;;;5.60;99.90;;;;;;4922885;29;20043;-79
2021/03/04 07:53:05;;;;;;;33.72;18.02;;;5.70;99.90;;;;;;4958602;29;20051;-79
2021/03/04 07:55:38;;;;;;;42.70;16.90;;;5.80;99.90;;;;;;4942080;28;20517;-78
2021/03/04 07:58:14;;;;;;;27.10;13.15;;;5.90;99.90;;;;;;4940247;28;20043;-77
2021/03/04 08:00:45;;;;;;;29.77;14.60;;;6.00;99.90;;;;;;4940814;28;20526;-77
2021/03/04 08:03:17;;;;;;;22.42;13.30;;;6.10;99.90;;;;;;4956590;28;20039;-77
2021/03/04 08:05:48;;;;;;;30.27;20.45;;;6.20;99.90;;;;;;4940140;28;20049;-77
2021/03/04 08:08:17;;;;;;;38.78;20.42;;;6.30;99.90;;;;;;4939476;28;20050;-77
2021/03/04 08:10:56;;;;;;;23.33;14.95;;;6.40;99.90;;;;;;4941890;29;20534;-78
2021/03/04 08:13:32;;;;;;;26.92;13.75;;;6.40;99.90;;;;;;4935865;29;20054;-77
2021/03/04 08:16:12;;;;;;;27.42;13.98;;;6.50;99.90;;;;;;4953403;28;20499;-77
2021/03/04 08:18:51;;;;;;;25.05;12.18;;;6.60;99.90;;;;;;4936413;29;20051;-78
2021/03/04 08:21:23;;;;;;;36.55;12.10;;;6.90;99.90;;;;;;4936994;29;20415;-77
2021/03/04 08:23:50;;;;;;;23.58;12.45;;;7.10;99.90;;;;;;4954648;29;20082;-77
2021/03/04 08:26:27;;;;;;;22.13;13.68;;;7.40;99.90;;;;;;4937244;29;20067;-78
2021/03/04 08:29:13;;;;;;;27.23;12.80;;;7.60;99.90;;;;;;4939296;28;20469;-77
2021/03/04 08:31:45;;;;;;;25.23;12.43;;;7.60;99.90;;;;;;4956412;28;20039;-77
2021/03/04 08:34:17;;;;;;;25.58;12.25;;;7.70;99.90;;;;;;4952570;28;20490;-77
2021/03/04 08:36:50;;;;;;;27.95;13.00;;;7.80;99.90;;;;;;4938075;28;20437;-78
2021/03/04 08:39:23;;;;;;;23.85;12.88;;;7.80;99.90;;;;;;4971047;28;20515;-77
2021/03/04 08:42:04;;;;;;;25.40;12.73;;;7.90;99.90;;;;;;4938968;28;20109;-77
2021/03/04 08:44:36;;;;;;;23.00;12.90;;;7.90;99.90;;;;;;4939658;28;20077;-77
2021/03/04 08:47:07;;;;;;;23.17;13.25;;;8.00;99.90;;;;;;4953893;28;20057;-77
2021/03/04 08:49:38;;;;;;;23.65;12.15;;;8.00;99.90;;;;;;4952355;28;20047;-77
2021/03/04 08:52:10;;;;;;;28.13;12.05;;;8.10;99.90;;;;;;4954398;28;20508;-77
2021/03/04 08:54:48;;;;;;;22.17;11.60;;;8.10;99.90;;;;;;4954464;28;20043;-78
2021/03/04 08:57:25;;;;;;;23.20;11.95;;;8.10;99.90;;;;;;4941025;29;20051;-77
2021/03/04 09:00:07;;;;;;;23.83;13.30;;;8.20;99.90;;;;;;4934433;29;20050;-77
2021/03/04 09:02:38;;;;;;;22.17;11.98;;;8.30;99.90;;;;;;4918702;29;20051;-77
2021/03/04 09:05:07;;;;;;;22.00;11.55;;;8.30;99.90;;;;;;4952271;29;20117;-77
2021/03/04 09:07:43;;;;;;;22.80;11.90;;;8.40;99.90;;;;;;4934877;29;20051;-77
2021/03/04 09:10:15;;;;;;;21.45;12.45;;;8.40;99.90;;;;;;4952072;29;20035;-77
2021/03/04 09:12:47;;;;;;;22.85;12.05;;;8.40;99.90;;;;;;4919538;29;20039;-78
2021/03/04 09:15:20;;;;;;;21.30;10.68;;;8.50;99.90;;;;;;4935878;29;20532;-77
2021/03/04 09:17:51;;;;;;;20.00;11.02;;;8.60;99.90;;;;;;4920026;29;20516;-77
2021/03/04 09:20:29;;;;;;;20.92;11.75;;;8.60;99.90;;;;;;4927837;28;20520;-78
2021/03/04 09:23:03;;;;;;;20.88;11.50;;;8.70;99.90;;;;;;4938895;29;20057;-77
2021/03/04 09:25:38;;;;;;;21.73;11.25;;;8.70;99.90;;;;;;4924992;29;20051;-78
2021/03/04 09:28:17;;;;;;;22.25;11.50;;;8.70;99.90;;;;;;5040285;23;20018;-77
2021/03/04 09:30:49;;;;;;;26.88;12.30;;;8.70;99.80;;;;;;4886016;29;20052;-77
2021/03/04 09:33:24;;;;;;;23.17;11.77;;;8.70;99.90;;;;;;4886943;29;20233;-77
2021/03/04 09:36:04;;;;;;;22.15;11.93;;;8.70;99.90;;;;;;4886035;29;20468;-77
2021/03/04 09:38:37;;;;;;;22.33;11.40;;;8.70;99.90;;;;;;4883728;29;20055;-77
2021/03/04 09:41:12;;;;;;;26.05;11.55;;;8.80;99.90;;;;;;4882812;29;20060;-77
2021/03/04 09:44:07;;;;;;;24.60;12.55;;;8.80;99.90;;;;;;4890084;29;20056;-77
2021/03/04 09:46:39;;;;;;;23.23;11.40;;;8.90;99.90;;;;;;4916801;29;20048;-78
2021/03/04 09:49:15;;;;;;;17.65;11.15;;;9.10;99.90;;;;;;4899395;29;20052;-78
2021/03/04 09:51:50;;;;;;;20.00;10.77;;;9.30;98.60;;;;;;4884611;29;20044;-78
2021/03/04 09:54:27;;;;;;;19.42;11.63;;;9.40;97.50;;;;;;4899732;29;20052;-77
2021/03/04 09:57:08;;;;;;;18.98;10.90;;;9.60;96.20;;;;;;4889848;29;20505;-79
2021/03/04 09:59:55;;;;;;;22.73;12.07;;;9.70;95.50;;;;;;4882600;29;20104;-77
2021/03/04 10:02:37;;;;;;;20.52;11.50;;;9.70;95.40;;;;;;4884812;29;20060;-78
2021/03/04 10:05:04;;;;;;;17.23;10.68;;;9.90;94.00;;;;;;4900178;29;20118;-78
2021/03/04 10:07:39;;;;;;;17.90;11.40;;;10.00;92.80;;;;;;4884675;29;20140;-79
2021/03/04 10:10:21;;;;;;;22.67;12.13;;;10.00;92.90;;;;;;4902019;29;20052;-79
2021/03/04 10:12:56;;;;;;;20.60;12.48;;;10.20;93.00;;;;;;4887718;29;20052;-77
2021/03/04 10:15:30;;;;;;;20.35;11.70;;;10.30;91.40;;;;;;4920017;29;20141;-77
2021/03/04 10:18:13;;;;;;;18.45;11.35;;;10.30;91.00;;;;;;4903107;29;20050;-78
2021/03/04 10:20:46;;;;;;;17.20;10.35;;;10.40;91.90;;;;;;4881732;29;20048;-77
2021/03/04 10:24:04;;;;;;;19.70;11.38;;;10.40;90.70;;;;;;4881602;29;20509;-77
2021/03/04 10:26:35;;;;;;;18.08;10.20;;;10.50;89.60;;;;;;4866110;29;20059;-78
2021/03/04 10:29:07;;;;;;;18.38;9.95;;;10.60;88.10;;;;;;4917741;29;20056;-77
2021/03/04 10:31:39;;;;;;;18.00;10.43;;;10.70;86.00;;;;;;4887795;29;20044;-77
2021/03/04 10:34:15;;;;;;;17.50;9.80;;;10.80;83.20;;;;;;4901523;29;20060;-77
2021/03/04 10:36:49;;;;;;;17.90;10.75;;;10.90;81.40;;;;;;4884687;29;20465;-77
2021/03/04 10:39:29;;;;;;;21.25;10.32;;;11.00;81.30;;;;;;4900799;29;20041;-77
2021/03/04 10:42:01;;;;;;;19.77;10.95;;;11.00;78.30;;;;;;4868994;29;20036;-78
2021/03/04 10:44:32;;;;;;;18.85;10.35;;;11.00;74.10;;;;;;4884100;29;20048;-78
2021/03/04 10:46:59;;;;;;;16.83;9.63;;;11.00;76.70;;;;;;4883883;29;20044;-78
2021/03/04 10:49:30;;;;;;;23.63;10.57;;;11.00;74.80;;;;;;4883572;29;20131;-77
2021/03/04 10:51:57;;;;;;;20.05;11.02;;;10.90;75.80;;;;;;4868424;29;20444;-78
2021/03/04 10:54:29;;;;;;;16.13;9.43;;;10.90;78.40;;;;;;4898630;29;20040;-78
2021/03/04 10:57:00;;;;;;;18.17;10.40;;;10.90;73.00;;;;;;4903204;29;20468;-78
2021/03/04 10:59:27;;;;;;;15.10;8.32;;;11.00;74.10;;;;;;4906620;29;20052;-77
2021/03/04 11:01:59;;;;;;;12.57;8.48;;;11.00;72.20;;;;;;4888293;29;20076;-79
2021/03/04 11:04:30;;;;;;;18.15;8.75;;;11.00;69.70;;;;;;4903953;29;20056;-79
2021/03/04 11:06:57;;;;;;;15.15;8.88;;;11.00;71.70;;;;;;4904250;29;20055;-79
2021/03/04 11:09:28;;;;;;;16.65;8.95;;;11.10;71.50;;;;;;4903251;29;20051;-80
2021/03/04 11:12:01;;;;;;;14.65;9.05;;;11.10;70.10;;;;;;4889218;29;20046;-79
2021/03/04 11:14:27;;;;;;;14.18;8.30;;;11.20;66.30;;;;;;4904487;29;20480;-79
2021/03/04 11:16:59;;;;;;;13.35;8.73;;;11.30;67.10;;;;;;4888090;29;20718;-79
2021/03/04 11:19:31;;;;;;;12.55;7.43;;;11.50;66.60;;;;;;4918572;29;20048;-79
2021/03/04 11:22:03;;;;;;;16.95;8.40;;;11.60;61.70;;;;;;4902928;29;20068;-79
2021/03/04 11:24:30;;;;;;;21.48;8.25;;;11.70;61.90;;;;;;4903959;29;20063;-79
2021/03/04 11:26:57;;;;;;;14.38;8.32;;;11.80;61.90;;;;;;4917335;29;20052;-77
2021/03/04 11:29:29;;;;;;;16.55;8.20;;;12.00;59.30;;;;;;4886573;29;20051;-77
2021/03/04 11:31:55;;;;;;;13.82;8.20;;;12.10;58.10;;;;;;4877275;29;20055;-77
2021/03/04 11:34:27;;;;;;;12.27;8.38;;;12.00;59.40;;;;;;4898313;29;20045;-77
2021/03/04 11:36:54;;;;;;;14.45;7.15;;;12.10;58.90;;;;;;4883111;29;20480;-77
2021/03/04 11:39:25;;;;;;;13.77;8.43;;;12.20;59.50;;;;;;4883711;29;20045;-77
2021/03/04 11:42:00;;;;;;;17.45;8.40;;;12.30;57.30;;;;;;4875732;29;20576;-77
2021/03/04 11:44:32;;;;;;;14.70;8.18;;;12.30;58.20;;;;;;4868214;29;20147;-78
2021/03/04 11:46:59;;;;;;;17.35;8.68;;;12.30;56.70;;;;;;4882866;29;20056;-80
2021/03/04 11:49:58;;;;;;;16.25;9.43;;;12.30;57.30;;;;;;4898090;29;20640;-78
2021/03/04 11:52:29;;;;;;;18.38;9.07;;;12.30;57.10;;;;;;4884997;29;20052;-79
2021/03/04 11:55:01;;;;;;;14.52;8.23;;;12.40;58.10;;;;;;4867946;29;20500;-79
2021/03/04 11:57:28;;;;;;;9.73;7.03;;;12.40;59.50;;;;;;4882726;29;20135;-78
2021/03/04 11:59:59;;;;;;;16.33;9.55;;;12.50;57.60;;;;;;4867913;29;20052;-78
2021/03/04 12:02:40;;;;;;;14.80;8.40;;;12.50;56.60;;;;;;4882640;29;20044;-78
2021/03/04 12:05:12;;;;;;;12.63;7.57;;;12.50;56.60;;;;;;4882549;29;20061;-78
2021/03/04 12:07:44;;;;;;;12.93;7.97;;;12.60;55.10;;;;;;4882638;29;20060;-78
2021/03/04 12:10:16;;;;;;;14.18;7.18;;;12.70;56.80;;;;;;4882628;29;20053;-78
2021/03/04 12:12:50;;;;;;;11.43;6.57;;;12.80;55.60;;;;;;4897403;29;20044;-78
2021/03/04 12:15:22;;;;;;;9.43;5.80;;;12.90;51.50;;;;;;4883281;29;20417;-78
2021/03/04 12:17:55;;;;;;;15.57;7.38;;;12.90;51.40;;;;;;4867021;29;20040;-78
2021/03/04 12:20:27;;;;;;;12.23;6.82;;;12.90;50.60;;;;;;4882822;29;20052;-78
2021/03/04 12:22:58;;;;;;;13.55;6.43;;;12.90;51.30;;;;;;4882079;29;20052;-78
2021/03/04 12:25:30;;;;;;;11.75;5.68;;;13.00;51.30;;;;;;4867496;29;20052;-77
2021/03/04 12:27:57;;;;;;;11.75;5.90;;;13.10;50.20;;;;;;4882097;29;20147;-78
2021/03/04 12:30:24;;;;;;;11.07;5.00;;;13.20;49.00;;;;;;4882302;29;20416;-78
2021/03/04 12:32:59;;;;;;;10.45;6.90;;;13.20;49.20;;;;;;4896647;29;20527;-78
2021/03/04 12:35:30;;;;;;;12.55;6.55;;;13.30;48.00;;;;;;4882365;29;20040;-78
2021/03/04 12:38:02;;;;;;;11.48;6.53;;;13.30;49.30;;;;;;4867555;29;20048;-78
2021/03/04 12:40:36;;;;;;;11.27;7.53;;;13.30;49.70;;;;;;4883127;29;20044;-78
2021/03/04 12:43:06;;;;;;;11.82;6.10;;;13.40;49.40;;;;;;4879649;29;20052;-78
2021/03/04 12:45:34;;;;;;;13.25;6.38;;;13.30;48.90;;;;;;4865167;29;20053;-78
2021/03/04 12:48:03;;;;;;;14.40;7.38;;;13.10;50.40;;;;;;4915490;23;20050;-78
2021/03/04 12:50:31;;;;;;;11.52;6.80;;;13.10;50.70;;;;;;4930668;29;20099;-78
2021/03/04 12:53:06;;;;;;;15.18;7.22;;;13.00;50.80;;;;;;4938748;29;20577;-77
2021/03/04 12:59:37;;;;;;;12.65;7.65;;;13.10;52.80;;;;;;4938539;29;20122;-78
2021/03/04 13:02:09;;;;;;;12.82;6.90;;;13.40;50.70;;;;;;4938602;29;20051;-79
2021/03/04 13:04:36;;;;;;;13.40;7.43;;;13.40;51.30;;;;;;4922895;29;20077;-77
2021/03/04 13:07:08;;;;;;;13.15;7.10;;;13.40;52.30;;;;;;4954048;29;20047;-78
2021/03/04 13:09:35;;;;;;;15.65;7.43;;;13.30;52.10;;;;;;4938367;29;20059;-78
2021/03/04 13:12:01;;;;;;;16.33;8.38;;;13.20;51.10;;;;;;4939419;29;20043;-78